Time;durP1;ratioP1;P1;durP2;ratioP2;P2;SDS_P1;SDS_P2;PMS_P1;PMS_P2;Temp;Humidity;BMP_temperature;BMP_pressure;BME280_temperature;BME280_humidity;BME280_pressure;Samples;Min_cycle;Max_cycle;Signal;HPM_P1;HPM_P2
2023/11/07 00:01:39;;;;;;;27.35;9.43;;;;;;;6.31;100.00;100625.59;4995774;28;20122;-80
2023/11/07 00:04:07;;;;;;;25.25;10.32;;;;;;;6.34;100.00;100615.63;4996323;28;20054;-81
2023/11/07 00:06:32;;;;;;;25.85;9.77;;;;;;;6.32;100.00;100628.09;4995653;28;20033;-80
2023/11/07 00:08:58;;;;;;;21.27;9.68;;;;;;;6.36;100.00;100628.72;4994062;28;20038;-81
2023/11/07 00:11:23;;;;;;;25.30;10.13;;;;;;;6.38;100.00;100628.63;4995637;28;20028;-80
2023/11/07 00:13:50;;;;;;;23.15;9.88;;;;;;;6.37;100.00;100625.09;4993956;28;20038;-80
2023/11/07 00:16:16;;;;;;;19.13;10.63;;;;;;;6.39;100.00;100636.41;4995488;28;20052;-79
2023/11/07 00:18:41;;;;;;;28.92;11.05;;;;;;;6.45;100.00;100637.72;4994530;28;20113;-81
2023/11/07 00:21:07;;;;;;;22.10;10.27;;;;;;;6.44;100.00;100628.97;4995857;28;20042;-81
2023/11/07 00:23:32;;;;;;;23.67;10.50;;;;;;;6.53;100.00;100632.72;4995568;28;20030;-81
2023/11/07 00:25:58;;;;;;;24.95;9.48;;;;;;;6.53;100.00;100641.47;4995232;28;20489;-80
2023/11/07 00:28:25;;;;;;;18.25;9.07;;;;;;;6.51;100.00;100632.84;4995256;28;20026;-80
2023/11/07 00:30:52;;;;;;;20.63;9.07;;;;;;;6.50;100.00;100635.59;4995211;28;20042;-80
2023/11/07 00:33:18;;;;;;;21.75;8.85;;;;;;;6.50;100.00;100639.06;4994997;28;20129;-80
2023/11/07 00:35:43;;;;;;;20.65;9.18;;;;;;;6.46;100.00;100642.91;4995631;28;20109;-80
2023/11/07 00:38:09;;;;;;;18.02;8.65;;;;;;;6.43;100.00;100637.03;4994927;28;20526;-80
2023/11/07 00:40:34;;;;;;;17.45;8.32;;;;;;;6.42;100.00;100640.63;4993845;28;20037;-81
2023/11/07 00:43:00;;;;;;;20.30;8.65;;;;;;;6.42;100.00;100638.84;4994982;28;20026;-80
2023/11/07 00:45:25;;;;;;;21.90;8.95;;;;;;;6.43;100.00;100631.72;4994864;28;20026;-80
2023/11/07 00:47:50;;;;;;;19.63;8.07;;;;;;;6.41;100.00;100645.06;4994729;28;20121;-79
2023/11/07 00:50:16;;;;;;;20.27;7.70;;;;;;;6.38;100.00;100645.31;4994740;28;20034;-80
2023/11/07 00:52:42;;;;;;;23.90;8.18;;;;;;;6.37;100.00;100635.69;4993760;28;20034;-79
2023/11/07 00:55:08;;;;;;;22.48;8.15;;;;;;;6.39;100.00;100652.28;4994717;28;20447;-80
2023/11/07 00:57:33;;;;;;;30.15;7.78;;;;;;;6.39;100.00;100648.78;4994654;28;20517;-79
2023/11/07 00:59:58;;;;;;;20.48;7.75;;;;;;;6.41;100.00;100660.09;4994607;28;20041;-79
2023/11/07 01:02:24;;;;;;;20.20;7.32;;;;;;;6.45;100.00;100669.44;4994463;28;20370;-79
2023/11/07 01:04:49;;;;;;;20.27;7.97;;;;;;;6.50;100.00;100662.03;4994427;28;20362;-79
2023/11/07 01:07:15;;;;;;;21.10;7.97;;;;;;;6.49;100.00;100671.78;4993999;28;20072;-80
2023/11/07 01:09:40;;;;;;;20.52;7.68;;;;;;;6.52;100.00;100673.31;4976651;28;20080;-79
2023/11/07 01:12:06;;;;;;;16.48;7.18;;;;;;;6.52;100.00;100671.53;4992827;28;20074;-80
2023/11/07 01:14:32;;;;;;;12.63;6.78;;;;;;;6.57;100.00;100686.19;4993121;28;20378;-80
2023/11/07 01:16:58;;;;;;;18.40;7.47;;;;;;;6.60;100.00;100681.53;4994031;28;20030;-79
2023/11/07 01:19:23;;;;;;;19.10;7.18;;;;;;;6.63;100.00;100683.09;4994083;28;20049;-80
2023/11/07 01:21:48;;;;;;;17.45;7.10;;;;;;;6.64;100.00;100677.69;4994228;28;20089;-79
2023/11/07 01:24:14;;;;;;;23.08;6.80;;;;;;;6.69;100.00;100672.03;4993843;28;20454;-79
2023/11/07 01:26:39;;;;;;;16.10;6.68;;;;;;;6.74;100.00;100669.88;4992522;28;20362;-79
2023/11/07 01:29:04;;;;;;;22.13;6.68;;;;;;;6.81;100.00;100664.97;4993834;28;20033;-79
2023/11/07 01:31:30;;;;;;;20.27;7.57;;;;;;;6.85;100.00;100666.41;4992405;28;20355;-78
2023/11/07 01:33:56;;;;;;;15.70;6.18;;;;;;;6.86;100.00;100666.28;4994571;28;20461;-79
2023/11/07 01:36:21;;;;;;;18.65;6.15;;;;;;;6.90;100.00;100656.31;4992889;28;20053;-80
2023/11/07 01:38:47;;;;;;;18.08;6.15;;;;;;;6.94;100.00;100663.06;4994214;28;20041;-80
2023/11/07 01:41:13;;;;;;;18.90;6.10;;;;;;;6.98;100.00;100666.28;4993098;28;20027;-80
2023/11/07 01:43:39;;;;;;;12.93;5.95;;;;;;;6.98;100.00;100659.19;4994064;28;20030;-81
2023/11/07 01:46:06;;;;;;;10.73;4.90;;;;;;;7.02;100.00;100662.44;4994100;28;20080;-80
2023/11/07 01:48:31;;;;;;;12.52;4.78;;;;;;;7.01;100.00;100650.19;4993846;28;20157;-80
2023/11/07 01:50:57;;;;;;;10.95;4.28;;;;;;;7.05;100.00;100664.84;4993246;28;20533;-80
2023/11/07 01:53:24;;;;;;;17.63;4.63;;;;;;;7.06;100.00;100650.63;4993728;28;20030;-80
2023/11/07 01:55:49;;;;;;;11.95;4.28;;;;;;;7.07;100.00;100658.47;4993644;28;20109;-81
2023/11/07 01:58:15;;;;;;;10.82;4.20;;;;;;;7.11;100.00;100661.72;4993884;28;20082;-79
2023/11/07 02:00:43;;;;;;;11.02;4.15;;;;;;;7.15;100.00;100662.31;4993608;28;20046;-79
2023/11/07 02:03:09;;;;;;;15.52;4.00;;;;;;;7.18;100.00;100668.22;4993548;28;20481;-80
2023/11/07 02:05:34;;;;;;;16.13;4.05;;;;;;;7.21;100.00;100670.63;4994158;28;20026;-80
2023/11/07 02:08:00;;;;;;;16.48;3.72;;;;;;;7.24;100.00;100673.03;4994189;28;20170;-80
2023/11/07 02:10:25;;;;;;;12.70;3.13;;;;;;;7.26;100.00;100678.19;4993586;28;20157;-80
2023/11/07 02:12:51;;;;;;;9.32;3.30;;;;;;;7.28;100.00;100680.72;4993476;28;20065;-79
2023/11/07 02:15:22;;;;;;;14.10;3.35;;;;;;;7.32;100.00;100677.69;4993272;28;20073;-80
2023/11/07 02:17:47;;;;;;;12.15;3.42;;;;;;;7.37;100.00;100675.50;4993140;28;20460;-80
2023/11/07 02:20:14;;;;;;;15.18;2.97;;;;;;;7.42;100.00;100677.81;4992051;28;20026;-78
2023/11/07 02:22:46;;;;;;;16.67;3.53;;;;;;;7.45;100.00;100689.94;4991785;28;20034;-79
2023/11/07 02:25:18;;;;;;;16.08;3.03;;;;;;;7.44;100.00;100681.19;4993301;28;20019;-80
2023/11/07 02:27:44;;;;;;;13.75;3.20;;;;;;;7.45;100.00;100684.66;4993107;28;20026;-79
2023/11/07 02:30:13;;;;;;;14.57;2.88;;;;;;;7.43;100.00;100687.44;4991868;28;20080;-79
2023/11/07 02:32:40;;;;;;;14.43;3.08;;;;;;;7.41;100.00;100684.91;4993054;28;20038;-79
2023/11/07 02:35:06;;;;;;;15.27;2.83;;;;;;;7.41;100.00;100678.78;4993050;28;20038;-79
2023/11/07 02:37:32;;;;;;;20.25;2.95;;;;;;;7.39;100.00;100689.50;4992217;28;20027;-79
2023/11/07 02:39:58;;;;;;;16.08;2.78;;;;;;;7.37;100.00;100683.44;4993055;28;20034;-79
2023/11/07 02:42:24;;;;;;;6.13;2.40;;;;;;;7.36;100.00;100679.16;4992903;28;20034;-79
2023/11/07 02:44:49;;;;;;;9.82;2.50;;;;;;;7.34;100.00;100678.41;4992924;28;20417;-78
2023/11/07 02:47:15;;;;;;;9.35;2.72;;;;;;;7.33;100.00;100674.09;4992533;28;20035;-78
2023/11/07 02:49:41;;;;;;;9.15;2.70;;;;;;;7.35;100.00;100673.97;4992896;28;20026;-79
2023/11/07 02:52:06;;;;;;;9.27;2.40;;;;;;;7.37;100.00;100675.50;4993281;28;20030;-79
2023/11/07 02:54:31;;;;;;;8.85;2.78;;;;;;;7.35;100.00;100674.81;4992792;28;20023;-78
2023/11/07 02:56:57;;;;;;;11.00;2.70;;;;;;;7.33;100.00;100676.75;4993074;28;20045;-78
2023/11/07 02:59:22;;;;;;;13.80;2.67;;;;;;;7.32;100.00;100677.69;4992936;28;20366;-79
2023/11/07 03:01:51;;;;;;;9.60;3.03;;;;;;;7.28;100.00;100675.41;4991273;28;20061;-79
2023/11/07 03:04:17;;;;;;;5.60;2.78;;;;;;;7.24;100.00;100675.66;4993055;28;20092;-80
2023/11/07 03:06:43;;;;;;;10.82;2.65;;;;;;;7.23;100.00;100676.63;4991532;28;20037;-78
2023/11/07 03:09:10;;;;;;;9.70;2.65;;;;;;;7.23;100.00;100675.78;4992906;28;20084;-79
2023/11/07 03:11:35;;;;;;;9.45;2.97;;;;;;;7.18;100.00;100680.59;4992548;28;20133;-80
2023/11/07 03:14:00;;;;;;;8.70;2.97;;;;;;;7.13;100.00;100680.94;4992683;28;20494;-80
2023/11/07 03:16:26;;;;;;;5.40;2.22;;;;;;;7.12;100.00;100676.66;4993048;28;20471;-79
2023/11/07 03:18:51;;;;;;;9.25;2.72;;;;;;;7.08;100.00;100675.19;4992643;28;20057;-76
2023/11/07 03:21:16;;;;;;;15.32;2.83;;;;;;;7.00;100.00;100683.72;4992313;28;20451;-79
2023/11/07 03:23:42;;;;;;;8.30;2.38;;;;;;;6.93;100.00;100681.69;4992551;28;20060;-79
2023/11/07 03:26:08;;;;;;;10.73;2.40;;;;;;;6.85;100.00;100676.97;4992473;28;20027;-78
2023/11/07 03:28:33;;;;;;;6.97;2.10;;;;;;;6.78;100.00;100668.69;4992551;28;20029;-79
2023/11/07 03:30:59;;;;;;;12.48;2.40;;;;;;;6.69;100.00;100675.53;4992192;28;20446;-79
2023/11/07 03:33:25;;;;;;;8.82;2.70;;;;;;;6.66;100.00;100667.00;4992190;28;20121;-79
2023/11/07 03:35:50;;;;;;;10.63;2.35;;;;;;;6.60;100.00;100680.66;4992600;28;20129;-80
2023/11/07 03:38:16;;;;;;;13.65;2.65;;;;;;;6.56;100.00;100679.22;4992787;28;20057;-79
2023/11/07 03:40:41;;;;;;;8.73;2.70;;;;;;;6.50;100.00;100677.88;4992333;28;20033;-80
2023/11/07 03:43:07;;;;;;;10.07;2.75;;;;;;;6.44;100.00;100676.53;4992437;28;20057;-80
2023/11/07 03:45:33;;;;;;;10.05;2.42;;;;;;;6.41;100.00;100675.94;4993031;28;20099;-79
2023/11/07 03:47:59;;;;;;;7.00;2.70;;;;;;;6.43;100.00;100685.44;4992313;28;20468;-79
2023/11/07 03:50:24;;;;;;;8.45;2.67;;;;;;;6.39;100.00;100691.06;4995150;28;20536;-81
2023/11/07 03:52:50;;;;;;;10.35;2.85;;;;;;;6.37;100.00;100683.25;4996366;28;20058;-80
2023/11/07 03:55:16;;;;;;;7.65;2.72;;;;;;;6.38;100.00;100690.22;4994361;28;20166;-80
2023/11/07 03:57:42;;;;;;;10.48;2.92;;;;;;;6.36;100.00;100689.50;4995983;28;20034;-80
2023/11/07 04:00:11;;;;;;;7.97;2.47;;;;;;;6.32;100.00;100688.06;4995887;28;20036;-80
2023/11/07 04:02:37;;;;;;;7.82;2.50;;;;;;;6.30;100.00;100690.81;4995647;28;20041;-80
2023/11/07 04:05:03;;;;;;;8.38;2.40;;;;;;;6.25;100.00;100695.56;4995547;28;20085;-81
2023/11/07 04:07:29;;;;;;;7.30;2.28;;;;;;;6.22;100.00;100687.06;4994807;28;20058;-80
2023/11/07 04:09:55;;;;;;;7.75;2.80;;;;;;;6.18;100.00;100687.28;4995577;28;20054;-80
2023/11/07 04:12:21;;;;;;;6.47;1.90;;;;;;;6.22;100.00;100687.06;4995502;28;20045;-80
2023/11/07 04:14:47;;;;;;;5.25;2.10;;;;;;;6.24;100.00;100690.41;4995377;28;20123;-80
2023/11/07 04:17:12;;;;;;;3.53;1.63;;;;;;;6.20;100.00;100695.09;4995833;28;20111;-79
2023/11/07 04:19:38;;;;;;;4.72;1.42;;;;;;;6.22;100.00;100700.25;4995526;28;20153;-80
2023/11/07 04:22:04;;;;;;;4.75;1.55;;;;;;;6.26;100.00;100702.56;4993806;28;20037;-78
2023/11/07 04:24:30;;;;;;;3.22;1.30;;;;;;;6.25;100.00;100692.09;4995888;28;20503;-79
2023/11/07 04:26:57;;;;;;;7.60;1.20;;;;;;;6.24;100.00;100695.69;4995112;28;20447;-79
2023/11/07 04:29:23;;;;;;;3.95;0.90;;;;;;;6.22;100.00;100694.97;4995157;28;20037;-79
2023/11/07 04:31:49;;;;;;;6.05;1.20;;;;;;;6.25;100.00;100694.75;4995207;28;20026;-79
2023/11/07 04:34:14;;;;;;;6.03;1.00;;;;;;;6.24;100.00;100693.06;4995013;28;20473;-78
2023/11/07 04:36:39;;;;;;;3.67;0.95;;;;;;;6.25;100.00;100695.56;4994955;28;20458;-79
2023/11/07 04:39:06;;;;;;;4.53;1.00;;;;;;;6.27;100.00;100692.81;4995031;28;20469;-78
2023/11/07 04:41:33;;;;;;;1.33;0.77;;;;;;;6.24;100.00;100688.63;4995197;28;20116;-79
2023/11/07 04:44:00;;;;;;;3.92;0.90;;;;;;;6.22;100.00;100698.44;4995099;28;20408;-79
2023/11/07 04:46:26;;;;;;;3.85;1.08;;;;;;;6.21;100.00;100701.22;4994819;28;20125;-79
2023/11/07 04:48:52;;;;;;;4.32;0.90;;;;;;;6.18;100.00;100694.38;4995270;28;20089;-80
2023/11/07 04:51:19;;;;;;;1.23;0.55;;;;;;;6.16;100.00;100704.19;4994751;28;20034;-79
2023/11/07 04:53:45;;;;;;;3.45;1.10;;;;;;;6.14;100.00;100709.59;4994794;28;20113;-79
2023/11/07 04:56:10;;;;;;;2.10;0.73;;;;;;;6.15;100.00;100713.06;4994515;28;20113;-79
2023/11/07 04:58:36;;;;;;;2.47;0.88;;;;;;;6.15;100.00;100713.06;4994439;28;20081;-80
2023/11/07 05:01:02;;;;;;;1.52;0.80;;;;;;;6.13;100.00;100717.63;4993474;28;20050;-80
2023/11/07 05:03:27;;;;;;;1.00;0.40;;;;;;;6.12;100.00;100719.44;4993219;28;20026;-80
2023/11/07 05:05:54;;;;;;;0.90;0.65;;;;;;;6.11;100.00;100723.03;4994847;28;20105;-80
2023/11/07 05:08:20;;;;;;;1.00;0.47;;;;;;;6.10;100.00;100715.22;4994452;28;20030;-79
2023/11/07 05:10:45;;;;;;;2.75;0.63;;;;;;;6.04;100.00;100718.31;4994601;28;20027;-79
2023/11/07 05:13:11;;;;;;;1.95;0.63;;;;;;;5.96;100.00;100709.13;4993197;28;20033;-79
2023/11/07 05:15:36;;;;;;;0.90;0.50;;;;;;;5.91;100.00;100708.63;4994562;28;20388;-79
2023/11/07 05:18:02;;;;;;;1.15;0.60;;;;;;;5.88;100.00;100715.91;4994483;28;20285;-80
2023/11/07 05:20:29;;;;;;;0.93;0.25;;;;;;;5.86;100.00;100708.09;4994738;28;20394;-80
2023/11/07 05:22:54;;;;;;;6.05;0.60;;;;;;;5.82;100.00;100715.41;4993596;28;20067;-80
2023/11/07 05:25:20;;;;;;;2.22;1.10;;;;;;;5.81;100.00;100712.88;4993009;28;20420;-79
2023/11/07 05:27:45;;;;;;;3.78;0.60;;;;;;;5.76;100.00;100715.88;4994574;28;20037;-79
2023/11/07 05:30:12;;;;;;;2.72;0.80;;;;;;;5.77;100.00;100714.91;4994486;28;20467;-79
2023/11/07 05:32:38;;;;;;;2.55;0.80;;;;;;;5.72;100.00;100717.03;4994302;28;20070;-80
2023/11/07 05:35:03;;;;;;;3.38;0.70;;;;;;;5.70;100.00;100716.28;4994637;28;20118;-80
2023/11/07 05:37:29;;;;;;;2.55;1.00;;;;;;;5.64;100.00;100714.09;4994359;28;20513;-80
2023/11/07 05:39:54;;;;;;;5.60;0.98;;;;;;;5.62;100.00;100716.84;4993992;28;20502;-80
2023/11/07 05:42:21;;;;;;;1.85;0.50;;;;;;;5.60;100.00;100723.22;4993514;28;20467;-79
2023/11/07 05:44:47;;;;;;;1.70;0.68;;;;;;;5.57;100.00;100726.03;4993940;28;20030;-80
2023/11/07 05:47:12;;;;;;;3.08;0.70;;;;;;;5.54;100.00;100729.75;4993682;28;20031;-78
2023/11/07 05:49:37;;;;;;;1.88;0.88;;;;;;;5.55;100.00;100725.31;4993792;28;20033;-80
2023/11/07 05:52:03;;;;;;;0.65;0.40;;;;;;;5.56;100.00;100727.84;4992474;28;20566;-80
2023/11/07 05:54:29;;;;;;;5.10;0.60;;;;;;;5.58;100.00;100725.97;4994045;28;20031;-79
2023/11/07 05:56:54;;;;;;;3.22;0.80;;;;;;;5.58;100.00;100719.81;4993662;28;20164;-79
2023/11/07 05:59:19;;;;;;;3.13;0.93;;;;;;;5.58;100.00;100725.09;4993586;28;20044;-78
2023/11/07 06:01:45;;;;;;;3.85;0.70;;;;;;;5.57;100.00;100711.06;4993471;28;20132;-80
2023/11/07 06:04:29;;;;;;;0.80;0.50;;;;;;;5.61;100.00;100724.88;4993279;28;20157;-80
2023/11/07 06:06:55;;;;;;;1.75;0.57;;;;;;;5.62;100.00;100726.56;4993837;28;20026;-80
2023/11/07 06:09:20;;;;;;;1.50;0.52;;;;;;;5.64;100.00;100732.56;4991995;28;20022;-80
2023/11/07 06:11:45;;;;;;;1.55;0.60;;;;;;;5.61;100.00;100735.44;4993309;28;20458;-79
2023/11/07 06:14:11;;;;;;;4.32;0.68;;;;;;;5.57;100.00;100736.59;4993438;28;20071;-79
2023/11/07 06:16:39;;;;;;;2.80;0.60;;;;;;;5.53;100.00;100735.16;4993650;28;20066;-79
2023/11/07 06:19:05;;;;;;;1.75;0.80;;;;;;;5.49;100.00;100737.13;4993451;28;20032;-80
2023/11/07 06:21:30;;;;;;;5.55;0.90;;;;;;;5.48;100.00;100738.94;4993096;28;20038;-80
2023/11/07 06:23:56;;;;;;;4.93;1.27;;;;;;;5.45;100.00;100733.88;4993467;28;20080;-79
2023/11/07 06:26:21;;;;;;;4.43;0.80;;;;;;;5.44;100.00;100734.00;4993319;28;20439;-79
2023/11/07 06:28:48;;;;;;;4.00;0.75;;;;;;;5.42;100.00;100726.19;4993328;28;20550;-81
2023/11/07 06:31:22;;;;;;;3.83;1.02;;;;;;;5.46;100.00;100732.94;4993400;28;20180;-80
2023/11/07 06:33:48;;;;;;;4.32;1.20;;;;;;;5.51;100.00;100739.66;4993689;28;20030;-82
2023/11/07 06:36:13;;;;;;;3.38;0.90;;;;;;;5.52;100.00;100734.28;4994701;28;20032;-81
2023/11/07 06:38:38;;;;;;;0.93;0.90;;;;;;;5.51;100.00;100742.31;4993620;28;20022;-80
2023/11/07 06:41:05;;;;;;;3.05;1.17;;;;;;;5.54;100.00;100742.94;4993453;28;20030;-79
2023/11/07 06:43:31;;;;;;;2.35;1.00;;;;;;;5.56;100.00;100740.22;4993336;28;20134;-81
2023/11/07 06:45:57;;;;;;;1.35;0.93;;;;;;;5.60;100.00;100746.97;4992844;28;20040;-78
2023/11/07 06:48:22;;;;;;;2.13;1.00;;;;;;;5.65;100.00;100752.75;4992799;28;20030;-79
2023/11/07 06:50:47;;;;;;;2.53;0.88;;;;;;;5.64;100.00;100746.63;4992142;28;20026;-79
2023/11/07 06:53:13;;;;;;;2.42;0.80;;;;;;;5.65;100.00;100747.47;4992779;28;20050;-84
2023/11/07 06:55:38;;;;;;;2.42;1.27;;;;;;;5.62;100.00;100748.50;4991324;28;20084;-79
2023/11/07 06:58:04;;;;;;;3.03;1.02;;;;;;;5.63;100.00;100760.78;4992654;28;20081;-81
2023/11/07 07:00:30;;;;;;;4.20;1.10;;;;;;;5.63;100.00;100750.22;4991308;28;20054;-84
2023/11/07 07:02:55;;;;;;;2.80;1.08;;;;;;;5.65;100.00;100756.22;4991665;28;20046;-80
2023/11/07 07:05:22;;;;;;;4.05;1.02;;;;;;;5.68;100.00;100756.97;4992521;28;20038;-80
2023/11/07 07:07:48;;;;;;;2.33;0.95;;;;;;;5.66;100.00;100759.72;4991300;28;20541;-81
2023/11/07 07:10:13;;;;;;;6.05;1.35;;;;;;;5.67;100.00;100763.19;4991167;28;20031;-81
2023/11/07 07:12:39;;;;;;;1.67;0.90;;;;;;;5.69;100.00;100774.47;4991236;28;20065;-81
2023/11/07 07:15:09;;;;;;;2.72;0.80;;;;;;;5.71;100.00;100773.41;4992519;28;20081;-80
2023/11/07 07:17:34;;;;;;;2.80;1.23;;;;;;;5.72;100.00;100777.75;4992525;28;20030;-81
2023/11/07 07:20:00;;;;;;;6.05;1.00;;;;;;;5.75;100.00;100782.81;4992786;28;20506;-81
2023/11/07 07:22:29;;;;;;;2.42;0.90;;;;;;;5.83;100.00;100774.34;4992346;28;20113;-82
2023/11/07 07:24:55;;;;;;;6.55;1.00;;;;;;;5.89;100.00;100781.81;4994663;28;20084;-81
2023/11/07 07:27:27;;;;;;;3.05;0.88;;;;;;;5.92;100.00;100781.59;4996443;28;20048;-82
2023/11/07 07:29:53;;;;;;;1.00;0.80;;;;;;;5.95;100.00;100781.38;4995966;28;20121;-80
2023/11/07 07:32:20;;;;;;;1.65;1.20;;;;;;;5.98;100.00;100783.81;4994555;28;20035;-80
2023/11/07 07:34:45;;;;;;;3.17;1.05;;;;;;;6.00;100.00;100771.38;4996430;28;20054;-79
2023/11/07 07:37:11;;;;;;;1.40;0.80;;;;;;;6.07;100.00;100776.19;4995932;28;20079;-79
2023/11/07 07:39:36;;;;;;;1.67;0.80;;;;;;;6.13;100.00;100786.31;4995836;28;20324;-80
2023/11/07 07:42:09;;;;;;;2.28;0.75;;;;;;;6.18;100.00;100782.41;4994358;28;20034;-80
2023/11/07 07:44:35;;;;;;;2.50;0.90;;;;;;;6.25;100.00;100784.59;4995475;28;20071;-78
2023/11/07 07:47:01;;;;;;;1.08;0.80;;;;;;;6.29;100.00;100789.53;4995456;28;20355;-80
2023/11/07 07:49:30;;;;;;;3.05;1.00;;;;;;;6.36;100.00;100792.59;4994250;28;20026;-78
2023/11/07 07:51:59;;;;;;;1.75;0.80;;;;;;;6.41;100.00;100789.59;4995387;28;20026;-79
2023/11/07 07:54:25;;;;;;;2.78;0.90;;;;;;;6.47;100.00;100781.22;5010290;28;20355;-85
2023/11/07 07:56:54;;;;;;;4.90;1.00;;;;;;;6.54;100.00;100795.66;4995219;28;20088;-80
2023/11/07 07:59:23;;;;;;;2.17;1.10;;;;;;;6.58;100.00;100796.25;4996264;28;20117;-80
2023/11/07 08:01:52;;;;;;;4.97;1.92;;;;;;;6.62;100.00;100803.03;4996320;28;20046;-80
2023/11/07 08:04:25;;;;;;;2.13;1.10;;;;;;;6.64;100.00;100809.03;4996493;28;20035;-80
2023/11/07 08:06:51;;;;;;;3.50;0.90;;;;;;;6.63;100.00;100810.00;4996278;28;20454;-79
2023/11/07 08:09:22;;;;;;;2.45;1.10;;;;;;;6.60;100.00;100815.50;4995617;28;20031;-80
2023/11/07 08:11:50;;;;;;;3.80;1.55;;;;;;;6.62;100.00;100813.59;4996376;28;20482;-79
2023/11/07 08:14:16;;;;;;;6.55;1.50;;;;;;;6.68;100.00;100816.59;4996633;28;20030;-80
2023/11/07 08:16:42;;;;;;;2.97;1.42;;;;;;;6.74;100.00;100825.06;4994615;28;20034;-79
2023/11/07 08:19:11;;;;;;;5.25;1.58;;;;;;;6.73;100.00;100813.63;4996215;28;20061;-80
2023/11/07 08:21:41;;;;;;;5.05;1.50;;;;;;;6.74;100.00;100817.13;4995603;28;20458;-80
2023/11/07 08:24:07;;;;;;;5.82;1.40;;;;;;;6.75;100.00;100817.00;4995774;28;20037;-78
2023/11/07 08:26:35;;;;;;;4.15;1.50;;;;;;;6.87;100.00;100820.53;4995387;28;20034;-79
2023/11/07 08:29:07;;;;;;;4.32;1.77;;;;;;;7.08;100.00;100828.66;4994381;28;20109;-79
2023/11/07 08:31:35;;;;;;;3.17;1.50;;;;;;;7.32;100.00;100825.09;4996361;28;20030;-80
2023/11/07 08:34:04;;;;;;;4.88;1.83;;;;;;;7.64;100.00;100829.69;4994608;28;20045;-79
2023/11/07 08:36:30;;;;;;;6.10;1.60;;;;;;;8.04;100.00;100832.66;4995702;28;20343;-80
2023/11/07 08:38:55;;;;;;;3.80;1.83;;;;;;;8.48;100.00;100838.03;4995813;28;20034;-80
2023/11/07 08:41:23;;;;;;;4.00;1.50;;;;;;;8.83;100.00;100836.91;4995857;28;20053;-80
2023/11/07 08:43:50;;;;;;;10.70;1.83;;;;;;;9.04;100.00;100836.91;4994890;28;20096;-80
2023/11/07 08:46:19;;;;;;;4.85;1.50;;;;;;;8.99;100.00;100833.84;5010851;28;20474;-80
2023/11/07 08:48:45;;;;;;;2.85;1.42;;;;;;;9.01;100.00;100837.19;4995504;28;20455;-80
2023/11/07 08:51:14;;;;;;;4.40;1.55;;;;;;;8.94;100.00;100844.84;4995274;28;20471;-79
2023/11/07 08:53:42;;;;;;;4.50;1.50;;;;;;;8.85;100.00;100839.44;4995318;28;20050;-79
2023/11/07 08:56:09;;;;;;;3.53;1.40;;;;;;;8.58;100.00;100838.97;4995408;28;20036;-78
2023/11/07 08:58:35;;;;;;;8.38;1.80;;;;;;;8.43;100.00;100846.31;4995309;28;20027;-78
2023/11/07 09:01:01;;;;;;;4.07;1.60;;;;;;;8.31;100.00;100839.34;4995273;28;20067;-77
2023/11/07 09:03:29;;;;;;;8.85;1.75;;;;;;;8.24;100.00;100840.81;4994365;28;20137;-78
2023/11/07 09:05:55;;;;;;;3.97;2.05;;;;;;;8.19;100.00;100848.31;5010235;28;20426;-79
2023/11/07 09:08:20;;;;;;;6.00;1.90;;;;;;;8.18;100.00;100850.13;4995189;28;20030;-79
2023/11/07 09:10:47;;;;;;;7.75;1.77;;;;;;;8.26;100.00;100852.97;4995082;28;20089;-79
2023/11/07 09:13:13;;;;;;;7.75;1.88;;;;;;;8.39;100.00;100850.19;4995072;28;20038;-79
2023/11/07 09:15:39;;;;;;;4.10;1.60;;;;;;;8.47;100.00;100847.78;4994680;28;20463;-80
2023/11/07 09:18:06;;;;;;;4.05;1.70;;;;;;;8.62;100.00;100850.97;4994982;28;20089;-79
2023/11/07 09:20:34;;;;;;;5.78;1.90;;;;;;;8.72;100.00;100848.44;4995397;28;20037;-81
2023/11/07 09:22:59;;;;;;;5.88;1.73;;;;;;;8.74;100.00;100854.44;4994834;28;20110;-81
2023/11/07 09:25:25;;;;;;;12.32;2.63;;;;;;;8.79;100.00;100852.25;4995135;28;20038;-80
2023/11/07 09:27:51;;;;;;;6.57;2.30;;;;;;;8.83;100.00;100851.00;4995070;28;20030;-81
2023/11/07 09:30:18;;;;;;;5.32;2.70;;;;;;;8.97;100.00;100854.31;4995064;28;20031;-81
2023/11/07 09:32:43;;;;;;;10.93;6.40;;;;;;;9.05;100.00;100859.03;4994643;28;20038;-82
2023/11/07 09:35:09;;;;;;;11.77;6.63;;;;;;;9.10;100.00;100867.44;4993495;28;20046;-83
2023/11/07 09:37:39;;;;;;;12.57;3.80;;;;;;;9.15;100.00;100858.09;4994465;28;20034;-83
2023/11/07 09:40:12;;;;;;;11.02;3.78;;;;;;;9.31;100.00;100868.25;4994706;28;20490;-82
2023/11/07 09:42:40;;;;;;;5.43;2.08;;;;;;;9.34;100.00;100861.84;4994680;28;20042;-81
2023/11/07 09:45:16;;;;;;;9.25;1.92;;;;;;;9.35;100.00;100879.47;4994443;28;20077;-82
2023/11/07 09:47:47;;;;;;;8.07;2.05;;;;;;;9.56;100.00;100863.50;4992949;28;20030;-84
2023/11/07 09:50:16;;;;;;;11.57;2.45;;;;;;;9.79;100.00;100860.69;4994639;28;20026;-85
2023/11/07 09:52:43;;;;;;;4.18;1.45;;;;;;;10.19;100.00;100862.50;4994107;28;20127;-83
2023/11/07 09:55:10;;;;;;;7.40;2.05;;;;;;;10.28;100.00;100868.81;4994654;28;20054;-83
2023/11/07 09:57:40;;;;;;;7.80;2.05;;;;;;;10.52;100.00;100871.97;4977231;28;20038;-83
2023/11/07 10:00:09;;;;;;;4.75;1.60;;;;;;;10.62;100.00;100872.00;4994933;28;20023;-87
2023/11/07 10:02:34;;;;;;;5.50;1.90;;;;;;;10.48;100.00;100881.22;4994008;28;20061;-84
2023/11/07 10:05:00;;;;;;;6.60;1.80;;;;;;;10.52;100.00;100881.78;4994686;28;20402;-84
2023/11/07 10:07:26;;;;;;;8.75;3.08;;;;;;;10.40;100.00;100889.91;4994387;28;20118;-85
2023/11/07 10:09:52;;;;;;;5.15;1.98;;;;;;;10.39;100.00;100892.69;4994238;28;20141;-83
2023/11/07 10:12:18;;;;;;;6.32;1.58;;;;;;;10.35;100.00;100878.81;4994850;28;20042;-84
2023/11/07 10:14:44;;;;;;;7.85;1.95;;;;;;;10.33;100.00;100883.44;4994242;28;20042;-85
2023/11/07 10:17:22;;;;;;;3.95;2.10;;;;;;;10.27;100.00;100883.94;4994535;28;20046;-83
2023/11/07 10:20:05;;;;;;;10.10;2.05;;;;;;;10.27;100.00;100881.28;4994402;28;20109;-81
2023/11/07 10:22:42;;;;;;;8.68;2.60;;;;;;;10.47;100.00;100882.19;4993089;28;20419;-84
2023/11/07 10:25:11;;;;;;;6.60;2.35;;;;;;;10.62;100.00;100884.47;4994382;28;20466;-83
2023/11/07 10:27:36;;;;;;;6.35;1.50;;;;;;;10.56;100.00;100873.38;4994319;28;20030;-82
2023/11/07 10:30:04;;;;;;;5.18;1.45;;;;;;;10.44;100.00;100886.97;4976778;28;20113;-83
2023/11/07 10:32:44;;;;;;;4.30;1.20;;;;;;;10.22;100.00;100872.88;4993946;28;20037;-82
2023/11/07 10:35:09;;;;;;;6.75;1.85;;;;;;;10.14;100.00;100878.88;4994126;28;20035;-81
2023/11/07 10:37:36;;;;;;;8.00;1.63;;;;;;;10.22;100.00;100889.66;4993826;28;20034;-82
2023/11/07 10:40:03;;;;;;;8.77;1.63;;;;;;;10.36;100.00;100879.63;4992424;28;20391;-82
2023/11/07 10:42:34;;;;;;;4.40;1.17;;;;;;;10.64;100.00;100880.66;4993605;28;20104;-82
2023/11/07 10:45:05;;;;;;;8.27;2.33;;;;;;;10.98;100.00;100884.75;4994004;28;20062;-81
2023/11/07 10:47:35;;;;;;;8.15;3.10;;;;;;;11.19;100.00;100888.09;4994250;28;20030;-83
2023/11/07 10:50:02;;;;;;;9.60;2.00;;;;;;;11.01;100.00;100895.13;4994295;28;20033;-81
2023/11/07 10:52:27;;;;;;;8.88;1.65;;;;;;;10.97;100.00;100891.06;4993850;28;20133;-82
2023/11/07 10:54:53;;;;;;;13.30;1.60;;;;;;;10.87;100.00;100883.09;4992189;28;20069;-82
2023/11/07 10:57:23;;;;;;;15.05;2.00;;;;;;;10.74;100.00;100889.50;4992525;28;20113;-81
2023/11/07 10:59:49;;;;;;;7.97;1.70;;;;;;;10.54;100.00;100882.50;4994588;28;20037;-81
2023/11/07 11:02:17;;;;;;;10.98;3.58;;;;;;;10.53;100.00;100896.78;4995587;28;20050;-81
2023/11/07 11:04:47;;;;;;;5.78;1.75;;;;;;;10.50;100.00;100892.56;4995384;28;20466;-81
2023/11/07 11:07:13;;;;;;;15.93;2.20;;;;;;;10.51;100.00;100885.41;4995689;28;20117;-83
2023/11/07 11:09:41;;;;;;;11.75;3.38;;;;;;;10.51;100.00;100888.06;4995638;28;20058;-83
2023/11/07 11:12:07;;;;;;;10.07;2.50;;;;;;;10.47;100.00;100884.84;4979652;28;20444;-84
2023/11/07 11:14:33;;;;;;;9.27;3.90;;;;;;;10.53;100.00;100889.63;4997289;28;20032;-83
2023/11/07 11:17:08;;;;;;;11.65;3.80;;;;;;;10.61;100.00;100880.13;4996108;28;20455;-84
2023/11/07 11:19:48;;;;;;;10.52;2.10;;;;;;;10.68;100.00;100892.72;4996103;28;20089;-85